Time;durP1;ratioP1;P1;durP2;ratioP2;P2;SDS_P1;SDS_P2;PMS_P1;PMS_P2;Temp;Humidity;BMP_temperature;BMP_pressure;BME280_temperature;BME280_humidity;BME280_pressure;Samples;Min_cycle;Max_cycle;Signal;HPM_P1;HPM_P2
2022/07/02 00:00:53;;;;;;;;;;;;;;;;;;5064784;28;20373;-78
2022/07/02 00:03:40;;;;;;;;;;;;;;;;;;5051976;28;19913;-78
2022/07/02 00:06:26;;;;;;;;;;;;;;;;;;5064844;28;19931;-78
2022/07/02 00:09:13;;;;;;;;;;;;;;;;;;5055657;28;19924;-78
2022/07/02 00:11:59;;;;;;;;;;;;;;;;;;5052052;28;19943;-79
2022/07/02 00:14:46;;;;;;;;;;;;;;;;;;5052379;28;19909;-78
2022/07/02 00:17:32;;;;;;;;;;;;;;;;;;5038381;28;20557;-79
2022/07/02 00:20:19;;;;;;;;;;;;;;;;;;5044764;28;19915;-78
2022/07/02 00:23:05;;;;;;;;;;;;;;;;;;5059135;28;19916;-79
2022/07/02 00:25:52;;;;;;;;;;;;;;;;;;5067969;28;19916;-79
2022/07/02 00:28:38;;;;;;;;;;;;;;;;;;5063613;28;19915;-78
2022/07/02 00:31:25;;;;;;;;;;;;;;;;;;5052662;28;19921;-78
2022/07/02 00:34:11;;;;;;;;;;;;;;;;;;5064195;28;19909;-78
2022/07/02 00:36:57;;;;;;;;;;;;;;;;;;5058642;28;19919;-79
2022/07/02 00:39:44;;;;;;;;;;;;;;;;;;5066767;28;19935;-78
2022/07/02 00:42:31;;;;;;;;;;;;;;;;;;5050305;28;19909;-79
2022/07/02 00:45:18;;;;;;;;;;;;;;;;;;5062342;28;19915;-78
2022/07/02 00:48:04;;;;;;;;;;;;;;;;;;5064829;28;20383;-78
2022/07/02 00:50:50;;;;;;;;;;;;;;;;;;5061152;28;19917;-79
2022/07/02 00:53:37;;;;;;;;;;;;;;;;;;5066544;28;20229;-78
2022/07/02 00:56:23;;;;;;;;;;;;;;;;;;5053556;28;19924;-78
2022/07/02 00:59:10;;;;;;;;;;;;;;;;;;5050346;28;19920;-78
2022/07/02 01:01:56;;;;;;;;;;;;;;;;;;5053345;28;19916;-78
2022/07/02 01:04:43;;;;;;;;;;;;;;;;;;5070394;28;19908;-78
2022/07/02 01:07:29;;;;;;;;;;;;;;;;;;5068558;28;19943;-79
2022/07/02 01:10:19;;;;;;;;;;;;;;;;;;5070319;28;19908;-79
2022/07/02 01:13:06;;;;;;;;;;;;;;;;;;5063386;28;19909;-78
2022/07/02 01:15:52;;;;;;;;;;;;;;;;;;5065864;28;19916;-78
2022/07/02 01:18:39;;;;;;;;;;;;;;;;;;5070534;28;19915;-79
2022/07/02 01:21:25;;;;;;;;;;;;;;;;;;5059636;28;19908;-78
2022/07/02 01:24:12;;;;;;;;;;;;;;;;;;5041737;28;19909;-78
2022/07/02 01:26:58;;;;;;;;;;;;;;;;;;5067326;28;19912;-79
2022/07/02 01:29:45;;;;;;;;;;;;;;;;;;5061457;28;19923;-78
2022/07/02 01:32:31;;;;;;;;;;;;;;;;;;5062417;28;19928;-79
2022/07/02 01:35:18;;;;;;;;;;;;;;;;;;5063359;28;19909;-79
2022/07/02 01:38:04;;;;;;;;;;;;;;;;;;5064072;28;20269;-79
2022/07/02 01:40:51;;;;;;;;;;;;;;;;;;5068389;28;19915;-79
2022/07/02 01:43:37;;;;;;;;;;;;;;;;;;5065817;28;20007;-79
2022/07/02 01:46:24;;;;;;;;;;;;;;;;;;5051251;28;19923;-80
2022/07/02 01:49:10;;;;;;;;;;;;;;;;;;5045774;28;19939;-79
2022/07/02 01:51:56;;;;;;;;;;;;;;;;;;5066829;28;19923;-79
2022/07/02 01:54:43;;;;;;;;;;;;;;;;;;5063850;28;19920;-78
2022/07/02 01:57:33;;;;;;;;;;;;;;;;;;5049887;28;19923;-78
2022/07/02 02:00:19;;;;;;;;;;;;;;;;;;5067952;28;19913;-78
2022/07/02 02:03:06;;;;;;;;;;;;;;;;;;5064604;28;19912;-78
2022/07/02 02:05:54;;;;;;;;;;;;;;;;;;5047956;28;20307;-79
2022/07/02 02:08:40;;;;;;;;;;;;;;;;;;5055809;28;19916;-78
2022/07/02 02:11:26;;;;;;;;;;;;;;;;;;5066294;28;19943;-79
2022/07/02 02:14:13;;;;;;;;;;;;;;;;;;5061456;28;19913;-79
2022/07/02 02:16:59;;;;;;;;;;;;;;;;;;5060105;28;20405;-79
2022/07/02 02:19:46;;;;;;;;;;;;;;;;;;5068798;28;20269;-78
2022/07/02 02:22:32;;;;;;;;;;;;;;;;;;5061116;28;19912;-79
2022/07/02 02:25:19;;;;;;;;;;;;;;;;;;5068608;28;20671;-78
2022/07/02 02:28:05;;;;;;;;;;;;;;;;;;5060701;28;19915;-78
2022/07/02 02:30:52;;;;;;;;;;;;;;;;;;5054546;28;19917;-78
2022/07/02 02:33:38;;;;;;;;;;;;;;;;;;5064262;28;19916;-78
2022/07/02 02:36:25;;;;;;;;;;;;;;;;;;5066613;28;19919;-79
2022/07/02 02:39:11;;;;;;;;;;;;;;;;;;5051580;28;20184;-78
2022/07/02 02:41:58;;;;;;;;;;;;;;;;;;5052163;28;19909;-79
2022/07/02 02:44:44;;;;;;;;;;;;;;;;;;5052898;28;19958;-79
2022/07/02 02:47:30;;;;;;;;;;;;;;;;;;5050435;28;19912;-79
2022/07/02 02:50:17;;;;;;;;;;;;;;;;;;5068354;28;19915;-78
2022/07/02 02:53:03;;;;;;;;;;;;;;;;;;5067200;28;19916;-78
2022/07/02 02:55:50;;;;;;;;;;;;;;;;;;5046819;28;19991;-78
2022/07/02 02:58:36;;;;;;;;;;;;;;;;;;5066278;28;20584;-78
2022/07/02 03:01:23;;;;;;;;;;;;;;;;;;5067556;28;19917;-78
2022/07/02 03:04:09;;;;;;;;;;;;;;;;;;5067574;28;19913;-78
2022/07/02 03:06:56;;;;;;;;;;;;;;;;;;5060159;28;19929;-78
2022/07/02 03:09:42;;;;;;;;;;;;;;;;;;5067171;28;19915;-79
2022/07/02 03:12:29;;;;;;;;;;;;;;;;;;5062425;28;19924;-78
2022/07/02 03:15:15;;;;;;;;;;;;;;;;;;5062327;28;20224;-78
2022/07/02 03:18:02;;;;;;;;;;;;;;;;;;5068445;28;19916;-78
2022/07/02 03:20:48;;;;;;;;;;;;;;;;;;5055023;28;20380;-79
2022/07/02 03:23:35;;;;;;;;;;;;;;;;;;5057874;28;19916;-80
2022/07/02 03:26:21;;;;;;;;;;;;;;;;;;5070090;28;19909;-80
2022/07/02 03:29:08;;;;;;;;;;;;;;;;;;5066820;28;19915;-79
2022/07/02 03:31:54;;;;;;;;;;;;;;;;;;5065666;28;19924;-80
2022/07/02 03:34:41;;;;;;;;;;;;;;;;;;5046799;28;19920;-79
2022/07/02 03:37:28;;;;;;;;;;;;;;;;;;5049064;28;19916;-80
2022/07/02 03:40:14;;;;;;;;;;;;;;;;;;5041615;28;19923;-79
2022/07/02 03:43:01;;;;;;;;;;;;;;;;;;5052713;28;19908;-79
2022/07/02 03:45:47;;;;;;;;;;;;;;;;;;5060479;28;19919;-80
2022/07/02 03:48:34;;;;;;;;;;;;;;;;;;5054449;28;19913;-78
2022/07/02 03:51:21;;;;;;;;;;;;;;;;;;5053024;28;20288;-80
2022/07/02 03:54:07;;;;;;;;;;;;;;;;;;5080145;28;19914;-79
2022/07/02 03:56:54;;;;;;;;;;;;;;;;;;5050750;28;19909;-79
2022/07/02 03:59:40;;;;;;;;;;;;;;;;;;5077449;28;20361;-80
2022/07/02 04:02:27;;;;;;;;;;;;;;;;;;5062093;28;19912;-81
2022/07/02 04:05:13;;;;;;;;;;;;;;;;;;5064129;28;19913;-79
2022/07/02 04:07:59;;;;;;;;;;;;;;;;;;5060680;28;19925;-79
2022/07/02 04:10:46;;;;;;;;;;;;;;;;;;5058964;28;19912;-80
2022/07/02 04:13:32;;;;;;;;;;;;;;;;;;5066635;28;19923;-79
2022/07/02 04:16:19;;;;;;;;;;;;;;;;;;5070298;28;20383;-79
2022/07/02 04:19:05;;;;;;;;;;;;;;;;;;5070322;28;19917;-79
2022/07/02 04:21:52;;;;;;;;;;;;;;;;;;5058488;28;19915;-79
2022/07/02 04:24:38;;;;;;;;;;;;;;;;;;5052814;28;19919;-79
2022/07/02 04:27:25;;;;;;;;;;;;;;;;;;5057530;28;19924;-79
2022/07/02 04:30:11;;;;;;;;;;;;;;;;;;5068356;28;19916;-80
2022/07/02 04:32:58;;;;;;;;;;;;;;;;;;5061871;28;20075;-78
2022/07/02 04:35:44;;;;;;;;;;;;;;;;;;5065137;28;19913;-79
2022/07/02 04:38:31;;;;;;;;;;;;;;;;;;5044601;28;19915;-79
2022/07/02 04:41:17;;;;;;;;;;;;;;;;;;5064194;28;20380;-78
2022/07/02 04:44:04;;;;;;;;;;;;;;;;;;5056467;28;19909;-78
2022/07/02 04:46:50;;;;;;;;;;;;;;;;;;5056228;28;19913;-78
2022/07/02 04:49:37;;;;;;;;;;;;;;;;;;5051880;28;19915;-79
2022/07/02 04:52:23;;;;;;;;;;;;;;;;;;5051861;28;19951;-79
2022/07/02 04:55:10;;;;;;;;;;;;;;;;;;5068389;28;19919;-79
2022/07/02 04:57:56;;;;;;;;;;;;;;;;;;5068970;28;19909;-79
2022/07/02 05:00:43;;;;;;;;;;;;;;;;;;5070383;28;19909;-79
2022/07/02 05:03:29;;;;;;;;;;;;;;;;;;5075225;28;20632;-80
2022/07/02 05:06:16;;;;;;;;;;;;;;;;;;5061442;28;19921;-79
2022/07/02 05:09:02;;;;;;;;;;;;;;;;;;5063693;28;19912;-78
2022/07/02 05:11:49;;;;;;;;;;;;;;;;;;5048923;28;20392;-77
2022/07/02 05:14:35;;;;;;;;;;;;;;;;;;5054322;28;19916;-79
2022/07/02 05:17:22;;;;;;;;;;;;;;;;;;5058107;28;20491;-79
2022/07/02 05:20:08;;;;;;;;;;;;;;;;;;5068341;28;19915;-79
2022/07/02 05:22:55;;;;;;;;;;;;;;;;;;5051885;28;19912;-79
2022/07/02 05:25:41;;;;;;;;;;;;;;;;;;5066125;28;20014;-78
2022/07/02 05:28:30;;;;;;;;;;;;;;;;;;5057686;28;20370;-80
2022/07/02 05:31:17;;;;;;;;;;;;;;;;;;5059366;28;19916;-79
2022/07/02 05:34:03;;;;;;;;;;;;;;;;;;5063981;28;19909;-78
2022/07/02 05:36:49;;;;;;;;;;;;;;;;;;5059072;28;20297;-78
2022/07/02 05:39:36;;;;;;;;;;;;;;;;;;5035706;28;19920;-79
2022/07/02 05:42:23;;;;;;;;;;;;;;;;;;5065215;28;19909;-79
2022/07/02 05:45:10;;;;;;;;;;;;;;;;;;5065753;28;19916;-79
2022/07/02 05:47:56;;;;;;;;;;;;;;;;;;5066335;28;19912;-79
2022/07/02 05:50:43;;;;;;;;;;;;;;;;;;5049976;28;19915;-79
2022/07/02 05:53:29;;;;;;;;;;;;;;;;;;5053382;28;19909;-79
2022/07/02 05:56:16;;;;;;;;;;;;;;;;;;5065757;28;19915;-79
2022/07/02 05:59:02;;;;;;;;;;;;;;;;;;5057211;28;19916;-79
2022/07/02 06:01:49;;;;;;;;;;;;;;;;;;5059400;28;19908;-79
2022/07/02 06:04:35;;;;;;;;;;;;;;;;;;5063899;28;19916;-78
2022/07/02 06:07:40;;;;;;;;;;;;;;;;;;5064805;28;19932;-77
2022/07/02 06:10:28;;;;;;;;;;;;;;;;;;5064912;28;20391;-78
2022/07/02 06:13:16;;;;;;;;;;;;;;;;;;5038462;28;19931;-78
2022/07/02 06:16:02;;;;;;;;;;;;;;;;;;5067811;28;19915;-78
2022/07/02 06:18:49;;;;;;;;;;;;;;;;;;5068988;28;19909;-81
2022/07/02 06:21:35;;;;;;;;;;;;;;;;;;5044166;28;19916;-79
2022/07/02 06:24:22;;;;;;;;;;;;;;;;;;5049834;28;19917;-78
2022/07/02 06:27:08;;;;;;;;;;;;;;;;;;5072876;28;20402;-78
2022/07/02 06:29:55;;;;;;;;;;;;;;;;;;5055028;28;19916;-78
2022/07/02 06:32:42;;;;;;;;;;;;;;;;;;5059056;28;19928;-78
2022/07/02 06:35:28;;;;;;;;;;;;;;;;;;5053746;28;19915;-79
2022/07/02 06:38:15;;;;;;;;;;;;;;;;;;5052231;28;20373;-79
2022/07/02 06:41:01;;;;;;;;;;;;;;;;;;5055015;28;19928;-79
2022/07/02 06:43:48;;;;;;;;;;;;;;;;;;5061760;28;19912;-78
2022/07/02 06:46:34;;;;;;;;;;;;;;;;;;5054815;28;20036;-80
2022/07/02 06:49:21;;;;;;;;;;;;;;;;;;5059558;28;19916;-79
2022/07/02 06:52:08;;;;;;;;;;;;;;;;;;5056750;28;19927;-81
2022/07/02 06:54:54;;;;;;;;;;;;;;;;;;5058618;28;19913;-79
2022/07/02 06:57:41;;;;;;;;;;;;;;;;;;5055101;28;19915;-79
2022/07/02 07:00:27;;;;;;;;;;;;;;;;;;5064675;28;19913;-79
2022/07/02 07:03:14;;;;;;;;;;;;;;;;;;5053651;28;19917;-81
2022/07/02 07:06:00;;;;;;;;;;;;;;;;;;5071768;28;19927;-85
2022/07/02 07:08:52;;;;;;;;;;;;;;;;;;5083173;28;19915;-89
2022/07/02 07:11:39;;;;;;;;;;;;;;;;;;5064853;28;20379;-88
2022/07/02 07:14:26;;;;;;;;;;;;;;;;;;5052785;28;19922;-86
2022/07/02 07:17:12;;;;;;;;;;;;;;;;;;5058102;28;19913;-84
2022/07/02 07:19:59;;;;;;;;;;;;;;;;;;5058485;28;19919;-85
2022/07/02 07:22:45;;;;;;;;;;;;;;;;;;5067346;28;19920;-84
2022/07/02 07:25:32;;;;;;;;;;;;;;;;;;5069291;28;19908;-85
2022/07/02 07:28:18;;;;;;;;;;;;;;;;;;5068289;28;20679;-84
2022/07/02 07:31:05;;;;;;;;;;;;;;;;;;5052463;28;19917;-84
2022/07/02 07:33:51;;;;;;;;;;;;;;;;;;5055391;28;19932;-83
2022/07/02 07:36:38;;;;;;;;;;;;;;;;;;5062123;28;19922;-87
2022/07/02 07:39:24;;;;;;;;;;;;;;;;;;5058416;28;20391;-88
2022/07/02 07:42:11;;;;;;;;;;;;;;;;;;5056634;28;19908;-91
2022/07/02 07:44:57;;;;;;;;;;;;;;;;;;5061506;28;19909;-87
2022/07/02 07:47:44;;;;;;;;;;;;;;;;;;5063999;28;19912;-87
2022/07/02 07:50:30;;;;;;;;;;;;;;;;;;5060195;28;19916;-83
2022/07/02 07:53:17;;;;;;;;;;;;;;;;;;5069366;28;19924;-83
2022/07/02 07:56:03;;;;;;;;;;;;;;;;;;5062306;28;19912;-82
2022/07/02 07:58:50;;;;;;;;;;;;;;;;;;5055366;28;19913;-84
2022/07/02 08:01:36;;;;;;;;;;;;;;;;;;5054429;28;19912;-87
2022/07/02 08:04:24;;;;;;;;;;;;;;;;;;5058210;28;20389;-86
2022/07/02 08:07:10;;;;;;;;;;;;;;;;;;5064693;28;19931;-85
2022/07/02 08:09:57;;;;;;;;;;;;;;;;;;5058553;28;20357;-87
2022/07/02 08:12:44;;;;;;;;;;;;;;;;;;5037905;28;19917;-90
2022/07/02 08:15:30;;;;;;;;;;;;;;;;;;5041499;28;19920;-82
2022/07/02 08:18:17;;;;;;;;;;;;;;;;;;5059457;28;20391;-82
2022/07/02 08:21:03;;;;;;;;;;;;;;;;;;5064883;28;19913;-83
2022/07/02 08:23:49;;;;;;;;;;;;;;;;;;5060382;28;19908;-88
2022/07/02 08:26:36;;;;;;;;;;;;;;;;;;5062821;28;19909;-91
2022/07/02 08:29:22;;;;;;;;;;;;;;;;;;5067455;28;19909;-83
2022/07/02 08:32:09;;;;;;;;;;;;;;;;;;5056380;28;19927;-88
2022/07/02 08:34:56;;;;;;;;;;;;;;;;;;5066659;28;19912;-87
2022/07/02 08:37:42;;;;;;;;;;;;;;;;;;5068559;28;19916;-87
2022/07/02 08:40:29;;;;;;;;;;;;;;;;;;5065551;28;19932;-87
2022/07/02 08:43:15;;;;;;;;;;;;;;;;;;5076809;28;19923;-93
2022/07/02 08:46:04;;;;;;;;;;;;;;;;;;5069792;28;21271;-89
2022/07/02 08:48:50;;;;;;;;;;;;;;;;;;5058671;28;19917;-87
2022/07/02 08:51:37;;;;;;;;;;;;;;;;;;5051394;28;20383;-87
2022/07/02 08:54:23;;;;;;;;;;;;;;;;;;5066416;28;19908;-88
2022/07/02 08:57:10;;;;;;;;;;;;;;;;;;5071348;28;19913;-86
2022/07/02 08:59:56;;;;;;;;;;;;;;;;;;5062090;28;19909;-84
2022/07/02 09:02:43;;;;;;;;;;;;;;;;;;5050522;28;19912;-89
2022/07/02 09:05:29;;;;;;;;;;;;;;;;;;5063086;28;19919;-86
2022/07/02 09:08:16;;;;;;;;;;;;;;;;;;5051645;28;19931;-88
2022/07/02 09:11:02;;;;;;;;;;;;;;;;;;5052029;28;19909;-83
2022/07/02 09:13:49;;;;;;;;;;;;;;;;;;5064281;28;19921;-83
2022/07/02 09:16:36;;;;;;;;;;;;;;;;;;5051934;28;20372;-83
2022/07/02 09:19:22;;;;;;;;;;;;;;;;;;5051017;28;20275;-79
2022/07/02 09:22:09;;;;;;;;;;;;;;;;;;5064024;28;19909;-77
2022/07/02 09:24:55;;;;;;;;;;;;;;;;;;5052972;28;20308;-81
2022/07/02 09:27:42;;;;;;;;;;;;;;;;;;5055841;28;19919;-84
2022/07/02 09:30:28;;;;;;;;;;;;;;;;;;5069572;28;19919;-82
2022/07/02 09:33:35;;;;;;;;;;;;;;;;;;5057269;28;19931;-82
2022/07/02 09:36:23;;;;;;;;;;;;;;;;;;5063029;28;19912;-82
2022/07/02 09:39:09;;;;;;;;;;;;;;;;;;5051372;28;20290;-82
2022/07/02 09:41:55;;;;;;;;;;;;;;;;;;5060411;28;19920;-81
2022/07/02 09:44:42;;;;;;;;;;;;;;;;;;5040458;28;20503;-82
2022/07/02 09:47:28;;;;;;;;;;;;;;;;;;5050678;28;19912;-81
2022/07/02 09:50:15;;;;;;;;;;;;;;;;;;5052814;28;20308;-81
2022/07/02 09:53:02;;;;;;;;;;;;;;;;;;5040132;28;19920;-82
2022/07/02 09:55:48;;;;;;;;;;;;;;;;;;5059754;28;19915;-82
2022/07/02 09:58:35;;;;;;;;;;;;;;;;;;5052226;28;19913;-83
2022/07/02 10:01:21;;;;;;;;;;;;;;;;;;5054104;28;20387;-84
2022/07/02 10:04:08;;;;;;;;;;;;;;;;;;5054981;28;19908;-85
2022/07/02 10:06:54;;;;;;;;;;;;;;;;;;5047980;28;19920;-85
2022/07/02 10:09:42;;;;;;;;;;;;;;;;;;5069426;28;19909;-88
2022/07/02 10:12:28;;;;;;;;;;;;;;;;;;5055767;28;19924;-77
2022/07/02 10:15:14;;;;;;;;;;;;;;;;;;5054998;28;20340;-77
2022/07/02 10:18:01;;;;;;;;;;;;;;;;;;5066203;28;19919;-78
2022/07/02 10:20:48;;;;;;;;;;;;;;;;;;5063218;28;19916;-78
2022/07/02 10:23:34;;;;;;;;;;;;;;;;;;5042177;28;19939;-78
2022/07/02 10:26:21;;;;;;;;;;;;;;;;;;5063410;28;19909;-83
2022/07/02 10:29:07;;;;;;;;;;;;;;;;;;5057322;28;19913;-83
2022/07/02 10:31:54;;;;;;;;;;;;;;;;;;5050225;28;19917;-83
2022/07/02 10:34:42;;;;;;;;;;;;;;;;;;5043790;28;19912;-80
2022/07/02 10:37:28;;;;;;;;;;;;;;;;;;5059580;28;19916;-83
2022/07/02 10:40:15;;;;;;;;;;;;;;;;;;5047244;28;19935;-86
2022/07/02 10:43:02;;;;;;;;;;;;;;;;;;5039619;28;19915;-85
2022/07/02 10:45:49;;;;;;;;;;;;;;;;;;5062996;28;20570;-85
2022/07/02 10:48:35;;;;;;;;;;;;;;;;;;5046301;28;19913;-84
2022/07/02 10:51:22;;;;;;;;;;;;;;;;;;5054827;28;19909;-83
2022/07/02 10:54:08;;;;;;;;;;;;;;;;;;5055546;28;19931;-84
2022/07/02 10:56:55;;;;;;;;;;;;;;;;;;5059810;28;19919;-86
2022/07/02 10:59:41;;;;;;;;;;;;;;;;;;5058797;28;19916;-85
2022/07/02 11:02:27;;;;;;;;;;;;;;;;;;5063283;28;19923;-84
2022/07/02 11:05:14;;;;;;;;;;;;;;;;;;5064723;28;19909;-84
2022/07/02 11:08:00;;;;;;;;;;;;;;;;;;5072506;28;19921;-78
2022/07/02 11:10:47;;;;;;;;;;;;;;;;;;5072667;28;19909;-86
2022/07/02 11:13:33;;;;;;;;;;;;;;;;;;5059356;28;19917;-87
2022/07/02 11:16:20;;;;;;;;;;;;;;;;;;5058783;28;19912;-83
2022/07/02 11:19:06;;;;;;;;;;;;;;;;;;5058617;28;19919;-86
2022/07/02 11:21:57;;;;;;;;;;;;;;;;;;5059361;28;19909;-79
2022/07/02 11:24:43;;;;;;;;;;;;;;;;;;5069103;28;19920;-79
2022/07/02 11:27:30;;;;;;;;;;;;;;;;;;5070552;28;20299;-79
2022/07/02 11:30:16;;;;;;;;;;;;;;;;;;5067595;28;19912;-79
2022/07/02 11:33:03;;;;;;;;;;;;;;;;;;5061809;28;20270;-79
2022/07/02 11:35:49;;;;;;;;;;;;;;;;;;5044006;28;19916;-78
2022/07/02 11:38:36;;;;;;;;;;;;;;;;;;5045509;28;19913;-79
2022/07/02 11:41:22;;;;;;;;;;;;;;;;;;5064471;28;19909;-79
2022/07/02 11:44:09;;;;;;;;;;;;;;;;;;5044313;28;19909;-80
2022/07/02 11:46:55;;;;;;;;;;;;;;;;;;5043351;28;19954;-79
2022/07/02 11:49:42;;;;;;;;;;;;;;;;;;5067889;28;20383;-79
2022/07/02 11:52:28;;;;;;;;;;;;;;;;;;5062496;28;19920;-89
2022/07/02 11:55:15;;;;;;;;;;;;;;;;;;5047680;28;20594;-85
2022/07/02 11:58:02;;;;;;;;;;;;;;;;;;5044036;28;19915;-85
2022/07/02 12:00:48;;;;;;;;;;;;;;;;;;5058525;28;19909;-86
2022/07/02 12:03:35;;;;;;;;;;;;;;;;;;5054298;28;19920;-85
2022/07/02 12:06:21;;;;;;;;;;;;;;;;;;5046618;28;19920;-86
2022/07/02 12:09:08;;;;;;;;;;;;;;;;;;5059906;28;19916;-85
2022/07/02 12:11:56;;;;;;;;;;;;;;;;;;5057965;28;20287;-84
2022/07/02 12:14:45;;;;;;;;;;;;;;;;;;5061871;28;19919;-87
2022/07/02 12:17:32;;;;;;;;;;;;;;;;;;5057608;28;19920;-88
2022/07/02 12:20:18;;;;;;;;;;;;;;;;;;5054828;28;19936;-87
2022/07/02 12:23:05;;;;;;;;;;;;;;;;;;5063182;28;19913;-84
2022/07/02 12:25:51;;;;;;;;;;;;;;;;;;5067754;28;19915;-84
2022/07/02 12:31:43;;;;;;;;;;;;;;;;;;5060590;28;19931;-85
2022/07/02 12:34:30;;;;;;;;;;;;;;;;;;5056270;28;19928;-85
2022/07/02 12:37:16;;;;;;;;;;;;;;;;;;5055105;28;19912;-85
2022/07/02 12:40:03;;;;;;;;;;;;;;;;;;5055562;28;19912;-85
2022/07/02 12:42:49;;;;;;;;;;;;;;;;;;5054753;28;19915;-83
2022/07/02 12:45:38;;;;;;;;;;;;;;;;;;5060527;28;19913;-84
2022/07/02 12:48:26;;;;;;;;;;;;;;;;;;5047920;28;20368;-89
2022/07/02 12:51:12;;;;;;;;;;;;;;;;;;5059405;28;19915;-88
2022/07/02 12:53:59;;;;;;;;;;;;;;;;;;5057619;28;20367;-85
2022/07/02 12:56:45;;;;;;;;;;;;;;;;;;5061707;28;19912;-83
2022/07/02 12:59:32;;;;;;;;;;;;;;;;;;5062371;28;20431;-84
2022/07/02 13:02:18;;;;;;;;;;;;;;;;;;5050549;28;19924;-81
2022/07/02 13:05:05;;;;;;;;;;;;;;;;;;5051145;28;19913;-81
2022/07/02 13:07:51;;;;;;;;;;;;;;;;;;5063242;28;19920;-85
2022/07/02 13:10:37;;;;;;;;;;;;;;;;;;5056267;28;19909;-85
2022/07/02 13:13:24;;;;;;;;;;;;;;;;;;5061143;28;19916;-83
2022/07/02 13:16:10;;;;;;;;;;;;;;;;;;5056872;28;19920;-83
2022/07/02 13:18:57;;;;;;;;;;;;;;;;;;5063438;28;19917;-84
2022/07/02 13:21:43;;;;;;;;;;;;;;;;;;5069561;28;19978;-85
2022/07/02 13:24:30;;;;;;;;;;;;;;;;;;5061363;28;19917;-89
2022/07/02 13:27:16;;;;;;;;;;;;;;;;;;5065194;28;19920;-83
2022/07/02 13:30:03;;;;;;;;;;;;;;;;;;5044247;28;20613;-89
2022/07/02 13:32:49;;;;;;;;;;;;;;;;;;5058075;28;19962;-80
2022/07/02 13:35:36;;;;;;;;;;;;;;;;;;5059445;28;19919;-79
2022/07/02 13:38:22;;;;;;;;;;;;;;;;;;5058014;28;19924;-80
2022/07/02 13:41:09;;;;;;;;;;;;;;;;;;5053590;28;19916;-80
2022/07/02 13:43:55;;;;;;;;;;;;;;;;;;5056017;28;19917;-78
2022/07/02 13:46:42;;;;;;;;;;;;;;;;;;5055871;28;19924;-78
2022/07/02 13:49:28;;;;;;;;;;;;;;;;;;5057726;28;20360;-79
2022/07/02 13:52:15;;;;;;;;;;;;;;;;;;5069804;28;19916;-84
2022/07/02 13:55:01;;;;;;;;;;;;;;;;;;5067483;28;19919;-81
2022/07/02 13:57:48;;;;;;;;;;;;;;;;;;5049016;28;19934;-81
2022/07/02 14:00:34;;;;;;;;;;;;;;;;;;5058923;28;19909;-81
2022/07/02 14:03:21;;;;;;;;;;;;;;;;;;5057994;28;19908;-81
2022/07/02 14:06:07;;;;;;;;;;;;;;;;;;5064962;28;19924;-81
2022/07/02 14:08:53;;;;;;;;;;;;;;;;;;5057844;28;19912;-81
2022/07/02 14:11:40;;;;;;;;;;;;;;;;;;5060274;28;20285;-81
2022/07/02 14:14:27;;;;;;;;;;;;;;;;;;5055346;28;19920;-80
2022/07/02 14:17:13;;;;;;;;;;;;;;;;;;5057175;28;19916;-81
2022/07/02 14:20:00;;;;;;;;;;;;;;;;;;5060330;28;19916;-81
2022/07/02 14:22:46;;;;;;;;;;;;;;;;;;5054479;28;19913;-81
2022/07/02 14:25:33;;;;;;;;;;;;;;;;;;5062928;28;19913;-81
2022/07/02 14:28:20;;;;;;;;;;;;;;;;;;5056321;28;19915;-82
2022/07/02 14:31:06;;;;;;;;;;;;;;;;;;5056073;28;20490;-81
2022/07/02 14:33:53;;;;;;;;;;;;;;;;;;5062310;28;19916;-81
2022/07/02 14:36:39;;;;;;;;;;;;;;;;;;5054328;28;19928;-81
2022/07/02 14:39:26;;;;;;;;;;;;;;;;;;5058819;28;19919;-82
2022/07/02 14:42:12;;;;;;;;;;;;;;;;;;5063764;28;19909;-83
2022/07/02 14:44:59;;;;;;;;;;;;;;;;;;5061863;28;19920;-82
2022/07/02 14:47:45;;;;;;;;;;;;;;;;;;5065165;28;20407;-82
2022/07/02 14:50:32;;;;;;;;;;;;;;;;;;5052184;28;19909;-83
2022/07/02 14:53:19;;;;;;;;;;;;;;;;;;5060828;28;19921;-82
2022/07/02 14:56:05;;;;;;;;;;;;;;;;;;5039771;28;19927;-80
2022/07/02 14:58:52;;;;;;;;;;;;;;;;;;5042830;28;19920;-79
2022/07/02 15:01:39;;;;;;;;;;;;;;;;;;5048705;28;20241;-81
2022/07/02 15:04:25;;;;;;;;;;;;;;;;;;5060221;28;20276;-82
2022/07/02 15:07:12;;;;;;;;;;;;;;;;;;5060392;28;19920;-82
2022/07/02 15:09:58;;;;;;;;;;;;;;;;;;5061860;28;19916;-82
2022/07/02 15:12:44;;;;;;;;;;;;;;;;;;5055899;28;20430;-82
2022/07/02 15:18:36;;;;;;;;;;;;;;;;;;5060068;28;19916;-81
2022/07/02 15:21:23;;;;;;;;;;;;;;;;;;5066757;28;20586;-81
2022/07/02 15:24:09;;;;;;;;;;;;;;;;;;5055356;28;19908;-82
2022/07/02 15:26:56;;;;;;;;;;;;;;;;;;5059785;28;20296;-85
2022/07/02 15:29:43;;;;;;;;;;;;;;;;;;5059907;28;19916;-83
2022/07/02 15:32:29;;;;;;;;;;;;;;;;;;5068099;28;20476;-82
2022/07/02 15:35:16;;;;;;;;;;;;;;;;;;5064963;28;19909;-82
2022/07/02 15:38:02;;;;;;;;;;;;;;;;;;5068337;28;19909;-82
2022/07/02 15:40:49;;;;;;;;;;;;;;;;;;5069368;28;19909;-82
2022/07/02 15:43:35;;;;;;;;;;;;;;;;;;5066887;28;19931;-84
2022/07/02 15:46:21;;;;;;;;;;;;;;;;;;5069657;28;19916;-82
2022/07/02 15:49:08;;;;;;;;;;;;;;;;;;5047043;28;19916;-84
2022/07/02 15:51:54;;;;;;;;;;;;;;;;;;5063821;28;19920;-83
2022/07/02 15:54:41;;;;;;;;;;;;;;;;;;5068313;28;19923;-84
2022/07/02 15:57:27;;;;;;;;;;;;;;;;;;5064634;28;19935;-84
2022/07/02 16:00:14;;;;;;;;;;;;;;;;;;5060068;28;19913;-82
2022/07/02 16:03:00;;;;;;;;;;;;;;;;;;5068961;28;19912;-82
2022/07/02 16:05:47;;;;;;;;;;;;;;;;;;5054695;28;19919;-83
2022/07/02 16:08:33;;;;;;;;;;;;;;;;;;5050121;28;20376;-88
2022/07/02 16:11:20;;;;;;;;;;;;;;;;;;5059326;28;19916;-86
2022/07/02 16:14:06;;;;;;;;;;;;;;;;;;5057415;28;19921;-89
2022/07/02 16:16:53;;;;;;;;;;;;;;;;;;5055601;28;19909;-84
2022/07/02 16:19:39;;;;;;;;;;;;;;;;;;5058375;28;20384;-84
2022/07/02 16:22:26;;;;;;;;;;;;;;;;;;5065010;28;19909;-84
2022/07/02 16:25:12;;;;;;;;;;;;;;;;;;5059554;28;19909;-84
2022/07/02 16:27:59;;;;;;;;;;;;;;;;;;5043027;28;19909;-83
2022/07/02 16:30:45;;;;;;;;;;;;;;;;;;5045187;28;20394;-83
2022/07/02 16:33:32;;;;;;;;;;;;;;;;;;5063335;28;19916;-84
2022/07/02 16:36:18;;;;;;;;;;;;;;;;;;5064142;28;19909;-85
2022/07/02 16:39:05;;;;;;;;;;;;;;;;;;5062650;28;19916;-83
2022/07/02 16:41:54;;;;;;;;;;;;;;;;;;5068202;28;19915;-83
2022/07/02 16:44:41;;;;;;;;;;;;;;;;;;5066305;28;19912;-79
2022/07/02 16:47:27;;;;;;;;;;;;;;;;;;5062115;28;19917;-79
2022/07/02 16:50:13;;;;;;;;;;;;;;;;;;5043877;28;20372;-79
2022/07/02 16:53:00;;;;;;;;;;;;;;;;;;5054130;28;19925;-79
2022/07/02 16:55:46;;;;;;;;;;;;;;;;;;5036349;28;19909;-79
2022/07/02 16:58:33;;;;;;;;;;;;;;;;;;5046419;28;20399;-78
2022/07/02 17:01:19;;;;;;;;;;;;;;;;;;5045305;28;19912;-79
2022/07/02 17:04:06;;;;;;;;;;;;;;;;;;5064175;28;19923;-80
2022/07/02 17:06:52;;;;;;;;;;;;;;;;;;5050206;28;19925;-79
2022/07/02 17:09:39;;;;;;;;;;;;;;;;;;5055179;28;19920;-80
2022/07/02 17:12:25;;;;;;;;;;;;;;;;;;5057509;28;19943;-79
2022/07/02 17:15:12;;;;;;;;;;;;;;;;;;5038275;28;19917;-79
2022/07/02 17:17:58;;;;;;;;;;;;;;;;;;5056496;28;19927;-80
2022/07/02 17:20:45;;;;;;;;;;;;;;;;;;5048758;28;19916;-79
2022/07/02 17:23:31;;;;;;;;;;;;;;;;;;5057691;28;20094;-78
2022/07/02 17:26:18;;;;;;;;;;;;;;;;;;5039419;28;20411;-79
2022/07/02 17:29:04;;;;;;;;;;;;;;;;;;5058389;28;20382;-78
2022/07/02 17:31:50;;;;;;;;;;;;;;;;;;5057026;28;19928;-78
2022/07/02 17:34:39;;;;;;;;;;;;;;;;;;5057317;28;19917;-78
2022/07/02 17:37:25;;;;;;;;;;;;;;;;;;5057939;28;19923;-78
2022/07/02 17:40:11;;;;;;;;;;;;;;;;;;5060241;28;19934;-76
2022/07/02 17:42:58;;;;;;;;;;;;;;;;;;5063010;28;19923;-76
2022/07/02 17:45:47;;;;;;;;;;;;;;;;;;5067732;28;19912;-76
2022/07/02 17:48:34;;;;;;;;;;;;;;;;;;5051277;28;20380;-77
2022/07/02 17:51:20;;;;;;;;;;;;;;;;;;5059012;28;19912;-77
2022/07/02 17:54:07;;;;;;;;;;;;;;;;;;5054393;28;19920;-77
2022/07/02 17:56:53;;;;;;;;;;;;;;;;;;5056076;28;19917;-76
2022/07/02 17:59:40;;;;;;;;;;;;;;;;;;5057776;28;19913;-77
2022/07/02 18:02:26;;;;;;;;;;;;;;;;;;5052560;28;20502;-78
2022/07/02 18:05:13;;;;;;;;;;;;;;;;;;5061415;28;19912;-76
2022/07/02 18:07:59;;;;;;;;;;;;;;;;;;5045540;28;19944;-75
2022/07/02 18:10:46;;;;;;;;;;;;;;;;;;5057696;28;19909;-75
2022/07/02 18:13:32;;;;;;;;;;;;;;;;;;5056269;28;19928;-74
2022/07/02 18:16:19;;;;;;;;;;;;;;;;;;5051987;28;19915;-75
2022/07/02 18:19:05;;;;;;;;;;;;;;;;;;5053585;28;20395;-75
2022/07/02 18:21:52;;;;;;;;;;;;;;;;;;5061921;28;20365;-74
2022/07/02 18:24:38;;;;;;;;;;;;;;;;;;5065963;28;19921;-75
2022/07/02 18:27:25;;;;;;;;;;;;;;;;;;5057555;28;19917;-80
2022/07/02 18:30:12;;;;;;;;;;;;;;;;;;5052851;28;19936;-86
2022/07/02 18:32:59;;;;;;;;;;;;;;;;;;5055188;28;19913;-81
2022/07/02 18:35:45;;;;;;;;;;;;;;;;;;5046078;28;20323;-75
2022/07/02 18:38:32;;;;;;;;;;;;;;;;;;5051925;28;19923;-77
2022/07/02 18:41:18;;;;;;;;;;;;;;;;;;5051138;28;19917;-75
2022/07/02 18:44:04;;;;;;;;;;;;;;;;;;5055962;28;20273;-77
2022/07/02 18:46:51;;;;;;;;;;;;;;;;;;5056057;28;19908;-77
2022/07/02 18:49:38;;;;;;;;;;;;;;;;;;5055047;28;19908;-77
2022/07/02 18:52:24;;;;;;;;;;;;;;;;;;5068899;28;19916;-77
2022/07/02 18:55:10;;;;;;;;;;;;;;;;;;5066260;28;19920;-77
2022/07/02 18:57:57;;;;;;;;;;;;;;;;;;5066507;28;19915;-77
2022/07/02 19:00:43;;;;;;;;;;;;;;;;;;5066932;28;19908;-77
2022/07/02 19:03:30;;;;;;;;;;;;;;;;;;5043674;28;19916;-76